Time;durP1;ratioP1;P1;durP2;ratioP2;P2;SDS_P1;SDS_P2;PMS_P1;PMS_P2;Temp;Humidity;BMP_temperature;BMP_pressure;BME280_temperature;BME280_humidity;BME280_pressure;Samples;Min_cycle;Max_cycle;Signal;HPM_P1;HPM_P2
2023/03/08 00:01:18;;;;;;;0.50;0.40;;;1.50;99.90;;;;;;5046986;28;20230;-79
2023/03/08 00:03:46;;;;;;;2.25;2.15;;;1.50;99.90;;;;;;5045793;28;20227;-80
2023/03/08 00:06:15;;;;;;;5.25;3.05;;;1.50;99.90;;;;;;5047184;28;20230;-79
2023/03/08 00:08:43;;;;;;;6.28;3.28;;;1.50;99.90;;;;;;5052163;28;20238;-80
2023/03/08 00:11:12;;;;;;;0.50;0.40;;;1.50;99.90;;;;;;5046581;28;20192;-80
2023/03/08 00:13:39;;;;;;;2.70;1.95;;;1.40;99.90;;;;;;5046991;28;20191;-79
2023/03/08 00:16:08;;;;;;;5.15;4.75;;;1.40;99.90;;;;;;5045454;28;20259;-80
2023/03/08 00:18:35;;;;;;;1.80;1.70;;;1.40;99.90;;;;;;5050742;28;20246;-79
2023/03/08 00:21:05;;;;;;;2.05;1.63;;;1.40;99.90;;;;;;5067274;28;20651;-79
2023/03/08 00:23:32;;;;;;;6.00;4.97;;;1.50;99.90;;;;;;5049259;28;20191;-79
2023/03/08 00:25:59;;;;;;;6.72;6.07;;;1.50;99.90;;;;;;5047500;28;20254;-79
2023/03/08 00:28:27;;;;;;;1.10;1.10;;;1.50;99.90;;;;;;5058356;28;20219;-80
2023/03/08 00:30:57;;;;;;;0.60;0.60;;;1.40;99.90;;;;;;5051525;28;20223;-79
2023/03/08 00:33:24;;;;;;;2.65;1.73;;;1.40;99.90;;;;;;5065951;28;20233;-80
2023/03/08 00:35:56;;;;;;;1.77;1.67;;;1.40;99.90;;;;;;5059480;28;20282;-80
2023/03/08 00:38:24;;;;;;;2.08;1.95;;;1.30;99.90;;;;;;5064516;28;20227;-79
2023/03/08 00:40:51;;;;;;;0.82;0.73;;;1.40;99.90;;;;;;5059598;28;20538;-79
2023/03/08 00:43:18;;;;;;;0.88;0.88;;;1.40;99.90;;;;;;5046788;28;20282;-79
2023/03/08 00:45:45;;;;;;;2.05;1.95;;;1.40;99.90;;;;;;5057005;28;20198;-78
2023/03/08 00:48:12;;;;;;;2.80;2.63;;;1.40;99.90;;;;;;5055718;28;20222;-80
2023/03/08 00:50:39;;;;;;;2.35;2.15;;;1.30;99.90;;;;;;5056269;28;20217;-79
2023/03/08 00:53:07;;;;;;;0.47;0.40;;;1.30;99.90;;;;;;5064185;28;20194;-79
2023/03/08 00:55:35;;;;;;;0.60;0.60;;;1.30;99.90;;;;;;5045176;28;20737;-80
2023/03/08 00:58:02;;;;;;;19.35;7.68;;;1.30;99.90;;;;;;5061534;28;20254;-79
2023/03/08 01:00:30;;;;;;;2.03;1.75;;;1.30;99.90;;;;;;5064961;28;20210;-79
2023/03/08 01:02:57;;;;;;;3.95;1.35;;;1.30;99.90;;;;;;5049215;28;20195;-79
2023/03/08 01:05:24;;;;;;;0.50;0.50;;;1.30;99.90;;;;;;5052431;28;20279;-80
2023/03/08 01:07:51;;;;;;;0.50;0.50;;;1.40;99.90;;;;;;5059390;28;20222;-80
2023/03/08 01:10:18;;;;;;;2.10;2.00;;;1.30;99.90;;;;;;5057050;28;20297;-79
2023/03/08 01:12:47;;;;;;;0.95;0.95;;;1.40;99.90;;;;;;5058602;28;20270;-79
2023/03/08 01:15:14;;;;;;;7.32;2.80;;;1.40;99.90;;;;;;5044088;28;20262;-79
2023/03/08 01:17:41;;;;;;;0.50;0.50;;;1.40;99.90;;;;;;5050678;28;20805;-79
2023/03/08 01:20:10;;;;;;;2.20;2.10;;;1.40;99.90;;;;;;5055983;28;20293;-78
2023/03/08 01:22:37;;;;;;;3.53;3.33;;;1.40;99.90;;;;;;5057511;28;20198;-79
2023/03/08 01:25:05;;;;;;;1.92;0.95;;;1.50;99.90;;;;;;5056912;28;20187;-78
2023/03/08 01:27:32;;;;;;;3.25;1.75;;;1.50;99.90;;;;;;5061411;28;20286;-79
2023/03/08 01:30:00;;;;;;;1.88;1.77;;;1.50;99.90;;;;;;5052225;28;20221;-79
2023/03/08 01:32:27;;;;;;;0.50;0.50;;;1.40;99.90;;;;;;5053519;28;20231;-80
2023/03/08 01:34:55;;;;;;;0.50;0.40;;;1.40;99.90;;;;;;5043532;28;20211;-79
2023/03/08 01:37:21;;;;;;;0.60;0.60;;;1.50;99.90;;;;;;5045182;28;20605;-79
2023/03/08 01:39:48;;;;;;;1.52;1.40;;;1.40;99.90;;;;;;5058515;28;20686;-79
2023/03/08 01:42:15;;;;;;;2.90;2.70;;;1.40;99.90;;;;;;5044311;28;20230;-79
2023/03/08 01:44:50;;;;;;;3.00;2.80;;;1.40;99.90;;;;;;5043698;28;20361;-80
2023/03/08 01:47:20;;;;;;;0.50;0.40;;;1.40;99.90;;;;;;5053665;28;20201;-79
2023/03/08 01:49:47;;;;;;;0.50;0.50;;;1.40;99.90;;;;;;5055446;28;20286;-77
2023/03/08 01:52:18;;;;;;;4.35;2.25;;;1.40;99.90;;;;;;5046093;28;20229;-79
2023/03/08 01:54:48;;;;;;;0.47;0.40;;;1.30;99.90;;;;;;5056883;28;20636;-77
2023/03/08 01:57:18;;;;;;;0.40;0.40;;;1.30;99.90;;;;;;5055440;28;20221;-79
2023/03/08 01:59:48;;;;;;;0.50;0.40;;;1.40;99.90;;;;;;5063293;28;20270;-77
2023/03/08 02:02:16;;;;;;;1.02;0.93;;;1.40;99.90;;;;;;5055213;28;20195;-79
2023/03/08 02:04:45;;;;;;;1.80;1.70;;;1.30;99.90;;;;;;5063993;28;20283;-79
2023/03/08 02:07:12;;;;;;;3.22;1.38;;;1.30;99.90;;;;;;5055179;28;20203;-80
2023/03/08 02:09:38;;;;;;;0.50;0.50;;;1.30;99.90;;;;;;5050477;28;20218;-79
2023/03/08 02:12:10;;;;;;;1.65;0.95;;;1.30;99.90;;;;;;5060149;28;20263;-80
2023/03/08 02:14:37;;;;;;;2.00;1.90;;;1.30;99.90;;;;;;5054615;28;20233;-80
2023/03/08 02:17:04;;;;;;;6.88;5.72;;;1.30;99.90;;;;;;5046457;28;20214;-80
2023/03/08 02:19:38;;;;;;;3.58;3.17;;;1.30;99.90;;;;;;5051144;28;20211;-80
2023/03/08 02:22:11;;;;;;;0.63;0.63;;;1.30;99.90;;;;;;5042218;28;20216;-80
2023/03/08 02:24:40;;;;;;;1.33;1.33;;;1.30;99.90;;;;;;5035365;28;20228;-80
2023/03/08 02:27:11;;;;;;;0.50;0.40;;;1.30;99.90;;;;;;5051277;28;20223;-80
2023/03/08 02:29:38;;;;;;;0.60;0.50;;;1.20;99.90;;;;;;5035390;28;20219;-80
2023/03/08 02:32:06;;;;;;;0.88;0.88;;;1.30;99.90;;;;;;5051407;28;20286;-80
2023/03/08 02:34:33;;;;;;;1.48;1.48;;;1.20;99.90;;;;;;5062044;28;20278;-80
2023/03/08 02:37:00;;;;;;;2.75;2.50;;;1.20;99.90;;;;;;5054753;28;20712;-80
2023/03/08 02:39:27;;;;;;;1.25;1.00;;;1.20;99.90;;;;;;5054007;28;20211;-80
2023/03/08 02:41:55;;;;;;;6.38;1.67;;;1.30;99.90;;;;;;5062873;28;20297;-80
2023/03/08 02:44:22;;;;;;;1.05;1.05;;;1.20;99.90;;;;;;5062828;28;20289;-81
2023/03/08 02:46:49;;;;;;;0.50;0.50;;;1.20;99.90;;;;;;5063758;28;20222;-79
2023/03/08 02:49:16;;;;;;;0.50;0.40;;;1.20;99.90;;;;;;5061787;28;20249;-81
2023/03/08 02:51:43;;;;;;;1.35;1.13;;;1.30;99.90;;;;;;5063625;28;20558;-80
2023/03/08 02:54:09;;;;;;;0.50;0.40;;;1.30;99.90;;;;;;5054649;28;20233;-80
2023/03/08 02:56:37;;;;;;;0.65;0.65;;;1.30;99.90;;;;;;5051970;28;20341;-80
2023/03/08 02:59:05;;;;;;;0.70;0.70;;;1.30;99.90;;;;;;5058558;28;20193;-80
2023/03/08 03:01:32;;;;;;;0.77;0.75;;;1.30;99.90;;;;;;5059794;28;20231;-80
2023/03/08 03:03:59;;;;;;;0.77;0.77;;;1.30;99.90;;;;;;5043260;28;20215;-79
2023/03/08 03:06:26;;;;;;;7.72;1.95;;;1.40;99.90;;;;;;5042617;28;20242;-79
2023/03/08 03:08:53;;;;;;;0.50;0.50;;;1.40;99.90;;;;;;5057021;28;20284;-79
2023/03/08 03:11:21;;;;;;;3.72;1.95;;;1.40;99.90;;;;;;5046701;28;20211;-80
2023/03/08 03:13:54;;;;;;;3.08;0.77;;;1.40;99.90;;;;;;5044708;28;20279;-79
2023/03/08 03:16:22;;;;;;;3.65;3.42;;;1.30;99.90;;;;;;5045087;28;20222;-80
2023/03/08 03:18:49;;;;;;;1.88;1.77;;;1.30;99.90;;;;;;5057891;28;20258;-81
2023/03/08 03:21:16;;;;;;;2.30;2.20;;;1.30;99.90;;;;;;5054293;28;20250;-80
2023/03/08 03:23:43;;;;;;;3.28;3.10;;;1.30;99.90;;;;;;5060269;28;20226;-79
2023/03/08 03:26:12;;;;;;;2.65;2.55;;;1.20;99.90;;;;;;5043651;28;20195;-81
2023/03/08 03:28:39;;;;;;;0.50;0.40;;;1.30;99.90;;;;;;5036119;28;20219;-81
2023/03/08 03:31:07;;;;;;;2.08;1.98;;;1.20;99.90;;;;;;5051111;28;20221;-80
2023/03/08 03:33:36;;;;;;;0.77;0.77;;;1.20;99.90;;;;;;5052919;28;20211;-80
2023/03/08 03:36:03;;;;;;;1.30;1.30;;;1.30;99.90;;;;;;5050403;28;20229;-81
2023/03/08 03:38:30;;;;;;;1.23;0.65;;;1.20;99.90;;;;;;5056904;28;20195;-80
2023/03/08 03:41:02;;;;;;;2.00;1.50;;;1.20;99.90;;;;;;5052405;28;20204;-80
2023/03/08 03:43:29;;;;;;;0.50;0.40;;;1.10;99.90;;;;;;5063465;28;20198;-80
2023/03/08 03:45:57;;;;;;;13.90;7.50;;;1.10;99.90;;;;;;5061174;28;20294;-77
2023/03/08 03:48:24;;;;;;;1.85;1.75;;;1.10;99.90;;;;;;5048934;28;20226;-80
2023/03/08 03:50:56;;;;;;;2.50;2.00;;;1.10;99.90;;;;;;5059877;28;20229;-79
2023/03/08 03:53:23;;;;;;;1.23;1.13;;;1.10;99.90;;;;;;5058683;28;20211;-80
2023/03/08 03:55:50;;;;;;;9.20;3.25;;;1.10;99.90;;;;;;5054097;28;20282;-79
2023/03/08 03:58:17;;;;;;;0.50;0.40;;;1.10;99.90;;;;;;5054533;28;20297;-79
2023/03/08 04:00:44;;;;;;;9.05;1.63;;;1.10;99.90;;;;;;5046776;28;20770;-80
2023/03/08 04:03:11;;;;;;;0.55;0.55;;;1.10;99.90;;;;;;5046738;28;20279;-80
2023/03/08 04:05:38;;;;;;;2.85;1.88;;;1.10;99.90;;;;;;5057377;28;20202;-80
2023/03/08 04:08:07;;;;;;;0.68;0.65;;;1.10;99.90;;;;;;5057675;28;20225;-80
2023/03/08 04:10:34;;;;;;;2.45;2.25;;;1.10;99.90;;;;;;5063381;28;20629;-80
2023/03/08 04:13:01;;;;;;;1.33;1.30;;;1.10;99.90;;;;;;5060446;28;20191;-80
2023/03/08 04:15:28;;;;;;;2.05;1.95;;;1.10;99.90;;;;;;5057472;28;20195;-80
2023/03/08 04:17:55;;;;;;;0.95;0.95;;;1.10;99.90;;;;;;5066358;28;20198;-80
2023/03/08 04:20:22;;;;;;;0.50;0.50;;;1.10;99.90;;;;;;5065704;28;20258;-80
2023/03/08 04:22:49;;;;;;;0.50;0.40;;;1.10;99.90;;;;;;5061320;28;20647;-80
2023/03/08 04:25:19;;;;;;;0.50;0.50;;;1.10;99.90;;;;;;5053976;28;20250;-80
2023/03/08 04:27:46;;;;;;;0.50;0.40;;;1.10;99.90;;;;;;5046463;28;20270;-80
2023/03/08 04:30:13;;;;;;;0.73;0.73;;;1.10;99.90;;;;;;5062033;28;20592;-79
2023/03/08 04:32:40;;;;;;;1.25;1.25;;;1.10;99.90;;;;;;5057320;28;20250;-80
2023/03/08 04:35:08;;;;;;;2.35;2.25;;;1.20;99.90;;;;;;5065663;28;20225;-78
2023/03/08 04:37:36;;;;;;;0.50;0.40;;;1.20;99.90;;;;;;5054320;28;20225;-79
2023/03/08 04:40:06;;;;;;;2.08;1.98;;;1.10;99.90;;;;;;5051612;28;20791;-80
2023/03/08 04:42:34;;;;;;;4.00;2.67;;;1.20;99.90;;;;;;5063564;28;20204;-80
2023/03/08 04:45:02;;;;;;;0.50;0.40;;;1.20;99.90;;;;;;5051067;28;20214;-79
2023/03/08 04:47:29;;;;;;;0.50;0.40;;;1.10;99.90;;;;;;5048897;28;20191;-79
2023/03/08 04:49:56;;;;;;;1.27;1.27;;;1.10;99.90;;;;;;5058957;28;20223;-80
2023/03/08 04:52:22;;;;;;;0.50;0.40;;;1.10;99.90;;;;;;5053839;28;20262;-80
2023/03/08 04:54:49;;;;;;;0.60;0.50;;;1.10;99.90;;;;;;5056506;28;20258;-80
2023/03/08 04:57:16;;;;;;;1.23;0.93;;;1.10;99.90;;;;;;5055818;28;20215;-80
2023/03/08 04:59:45;;;;;;;0.93;0.93;;;1.10;99.90;;;;;;5043052;28;20230;-79
2023/03/08 05:02:12;;;;;;;0.50;0.50;;;1.10;99.90;;;;;;5052239;28;20226;-79
2023/03/08 05:04:39;;;;;;;1.55;1.55;;;1.10;99.90;;;;;;5052349;28;21581;-78
2023/03/08 05:07:06;;;;;;;0.50;0.40;;;1.10;99.90;;;;;;5043289;28;20196;-79
2023/03/08 05:09:33;;;;;;;0.50;0.40;;;1.10;99.90;;;;;;5060207;28;20286;-79
2023/03/08 05:11:59;;;;;;;1.05;0.80;;;1.10;99.90;;;;;;5048847;28;20654;-79
2023/03/08 05:14:26;;;;;;;0.50;0.50;;;1.10;99.90;;;;;;5045396;28;20651;-79
2023/03/08 05:16:56;;;;;;;0.50;0.40;;;1.10;99.90;;;;;;5050698;28;20642;-79
2023/03/08 05:19:23;;;;;;;0.50;0.40;;;1.10;99.90;;;;;;5042489;28;20724;-79
2023/03/08 05:21:51;;;;;;;1.17;1.13;;;1.10;99.90;;;;;;5050961;28;20195;-77
2023/03/08 05:24:20;;;;;;;3.50;1.80;;;1.10;99.90;;;;;;5042073;28;20195;-79
2023/03/08 05:26:47;;;;;;;1.45;0.80;;;1.10;99.90;;;;;;5050924;28;20617;-80
2023/03/08 05:29:14;;;;;;;0.50;0.40;;;1.10;99.90;;;;;;5042291;28;20215;-79
2023/03/08 05:31:42;;;;;;;0.50;0.47;;;1.10;99.90;;;;;;5061154;28;20214;-80
2023/03/08 05:34:11;;;;;;;2.15;2.05;;;1.10;99.90;;;;;;5046056;28;20196;-79
2023/03/08 05:36:38;;;;;;;0.50;0.40;;;1.10;99.90;;;;;;5049556;28;20281;-78
2023/03/08 05:39:06;;;;;;;2.25;2.15;;;1.10;99.90;;;;;;5044095;28;20218;-79
2023/03/08 05:41:33;;;;;;;3.05;1.75;;;1.00;99.90;;;;;;5044321;28;20301;-81
2023/03/08 05:44:01;;;;;;;3.03;2.35;;;1.00;99.90;;;;;;5044468;28;20575;-79
2023/03/08 05:46:27;;;;;;;0.50;0.40;;;1.10;99.90;;;;;;5045454;28;20218;-80
2023/03/08 05:48:54;;;;;;;0.50;0.40;;;1.10;99.90;;;;;;5053570;28;20258;-78
2023/03/08 05:51:22;;;;;;;1.30;1.23;;;1.10;99.90;;;;;;5051199;28;20225;-79
2023/03/08 05:53:49;;;;;;;0.50;0.45;;;1.10;99.90;;;;;;5054242;28;20298;-79
2023/03/08 05:56:18;;;;;;;0.50;0.40;;;1.10;99.90;;;;;;5045733;28;20195;-78
2023/03/08 05:58:45;;;;;;;3.22;3.03;;;1.10;99.90;;;;;;5056382;28;20234;-79
2023/03/08 06:01:15;;;;;;;0.50;0.40;;;1.00;99.90;;;;;;5040450;28;20251;-78
2023/03/08 06:03:42;;;;;;;0.50;0.40;;;1.00;99.90;;;;;;5039176;28;20202;-79
2023/03/08 06:06:09;;;;;;;0.50;0.40;;;1.00;99.90;;;;;;5043438;28;20191;-79
2023/03/08 06:08:38;;;;;;;0.50;0.40;;;1.00;99.90;;;;;;5054323;28;20297;-81
2023/03/08 06:11:05;;;;;;;0.50;0.43;;;1.00;99.90;;;;;;5056833;28;20306;-78
2023/03/08 06:13:32;;;;;;;1.55;0.85;;;1.00;99.90;;;;;;5041396;28;20235;-81
2023/03/08 06:16:00;;;;;;;0.50;0.50;;;1.00;99.90;;;;;;5052386;28;20230;-80
2023/03/08 06:18:28;;;;;;;0.80;0.80;;;1.00;99.90;;;;;;5051985;28;20219;-79
2023/03/08 06:20:57;;;;;;;1.30;1.20;;;1.00;99.90;;;;;;5055791;28;20294;-80
2023/03/08 06:23:23;;;;;;;0.47;0.40;;;0.90;99.90;;;;;;5064931;28;20290;-79
2023/03/08 06:25:52;;;;;;;0.60;0.60;;;0.90;99.90;;;;;;5033466;28;20214;-81
2023/03/08 06:28:19;;;;;;;0.50;0.43;;;0.90;99.90;;;;;;5052678;28;20195;-82
2023/03/08 06:30:48;;;;;;;0.50;0.40;;;0.80;99.90;;;;;;5051770;28;20225;-79
2023/03/08 06:33:15;;;;;;;0.50;0.40;;;0.80;99.90;;;;;;5052669;28;20211;-81
2023/03/08 06:35:42;;;;;;;0.70;0.60;;;0.80;99.90;;;;;;5041620;28;20196;-79
2023/03/08 06:38:09;;;;;;;0.65;0.65;;;0.80;99.90;;;;;;5040727;28;20191;-80
2023/03/08 06:40:40;;;;;;;0.50;0.40;;;0.80;99.90;;;;;;5050056;28;20241;-82
2023/03/08 06:43:08;;;;;;;0.90;0.70;;;0.80;99.90;;;;;;5062005;28;20252;-80
2023/03/08 06:45:38;;;;;;;0.50;0.40;;;0.70;99.90;;;;;;5052019;28;20222;-77
2023/03/08 06:48:05;;;;;;;0.50;0.40;;;0.70;99.90;;;;;;5036574;28;20254;-82
2023/03/08 06:50:32;;;;;;;0.70;0.60;;;0.70;99.90;;;;;;5035741;28;20659;-80
2023/03/08 06:52:59;;;;;;;0.85;0.85;;;0.70;99.90;;;;;;5036766;28;20625;-81
2023/03/08 06:55:26;;;;;;;2.55;1.25;;;0.60;99.90;;;;;;5035559;28;20192;-81
2023/03/08 06:57:54;;;;;;;1.45;1.17;;;0.70;99.90;;;;;;5036511;28;20282;-79
2023/03/08 07:00:23;;;;;;;0.50;0.40;;;0.70;99.90;;;;;;5036339;28;20261;-80
2023/03/08 07:02:50;;;;;;;0.50;0.40;;;0.70;99.90;;;;;;5051065;28;20284;-79
2023/03/08 07:05:17;;;;;;;0.57;0.57;;;0.70;99.90;;;;;;5057881;28;20569;-81
2023/03/08 07:07:44;;;;;;;0.50;0.40;;;0.70;99.90;;;;;;5041851;28;20219;-80
2023/03/08 07:10:14;;;;;;;3.58;2.88;;;0.70;99.90;;;;;;5037239;28;20215;-80
2023/03/08 07:12:42;;;;;;;0.50;0.40;;;0.70;99.90;;;;;;5041915;28;20202;-82
2023/03/08 07:15:13;;;;;;;0.50;0.40;;;0.70;99.90;;;;;;5043022;28;20614;-80
2023/03/08 07:17:42;;;;;;;0.43;0.40;;;0.70;99.90;;;;;;5041903;28;20200;-81
2023/03/08 07:20:10;;;;;;;0.60;0.60;;;0.60;99.90;;;;;;5047838;28;20234;-80
2023/03/08 07:22:37;;;;;;;0.50;0.40;;;0.70;99.90;;;;;;5061070;28;20226;-80
2023/03/08 07:25:04;;;;;;;0.50;0.50;;;0.60;99.90;;;;;;5062480;28;20201;-80
2023/03/08 07:27:31;;;;;;;0.70;0.70;;;0.70;99.90;;;;;;5063618;28;20233;-81
2023/03/08 07:29:58;;;;;;;0.50;0.40;;;0.70;99.90;;;;;;5047911;28;20307;-80
2023/03/08 07:32:27;;;;;;;1.27;0.80;;;0.60;99.90;;;;;;5040780;28;20648;-80
2023/03/08 07:34:56;;;;;;;0.50;0.40;;;0.60;99.90;;;;;;5040960;28;20191;-81
2023/03/08 07:37:22;;;;;;;0.75;0.75;;;0.60;99.90;;;;;;5049490;28;20713;-81
2023/03/08 07:39:49;;;;;;;0.80;0.70;;;0.60;99.90;;;;;;5060825;28;20613;-79
2023/03/08 07:42:16;;;;;;;0.73;0.73;;;0.60;99.90;;;;;;5061689;28;20194;-82
2023/03/08 07:44:43;;;;;;;0.50;0.40;;;0.60;99.90;;;;;;5063516;28;20682;-81
2023/03/08 07:47:10;;;;;;;0.50;0.40;;;0.60;99.90;;;;;;5059833;28;20190;-77
2023/03/08 07:49:37;;;;;;;0.50;0.40;;;0.60;99.90;;;;;;5051838;28;20722;-81
2023/03/08 07:52:05;;;;;;;0.50;0.40;;;0.60;99.90;;;;;;5060000;28;20305;-81
2023/03/08 07:54:32;;;;;;;0.50;0.40;;;0.60;99.90;;;;;;5067091;28;20666;-79
2023/03/08 07:56:59;;;;;;;1.35;0.75;;;0.60;99.90;;;;;;5059148;28;20277;-77
2023/03/08 07:59:26;;;;;;;0.50;0.40;;;0.60;99.90;;;;;;5059369;28;20254;-81
2023/03/08 08:01:53;;;;;;;0.60;0.60;;;0.60;99.90;;;;;;5059612;28;20560;-78
2023/03/08 08:04:21;;;;;;;0.50;0.50;;;0.60;99.90;;;;;;5052149;28;20694;-81
2023/03/08 08:06:48;;;;;;;0.50;0.50;;;0.60;99.90;;;;;;5037185;28;20195;-81
2023/03/08 08:09:17;;;;;;;0.50;0.40;;;0.60;99.90;;;;;;5038209;28;20279;-80
2023/03/08 08:11:44;;;;;;;0.50;0.50;;;0.60;99.90;;;;;;5038214;28;20211;-81
2023/03/08 08:14:11;;;;;;;1.00;1.00;;;0.60;99.90;;;;;;5039089;28;20282;-81
2023/03/08 08:16:37;;;;;;;0.50;0.40;;;0.60;99.90;;;;;;5036625;28;20637;-80
2023/03/08 08:19:05;;;;;;;0.50;0.50;;;0.50;99.90;;;;;;5036801;28;20274;-81
2023/03/08 08:21:31;;;;;;;0.50;0.50;;;0.50;99.90;;;;;;5039200;28;20191;-81
2023/03/08 08:24:00;;;;;;;0.50;0.40;;;0.50;99.90;;;;;;5047345;28;20225;-83
2023/03/08 08:26:28;;;;;;;0.50;0.50;;;0.60;99.90;;;;;;5053950;28;20226;-82
2023/03/08 08:28:55;;;;;;;1.60;1.15;;;0.60;99.90;;;;;;5039510;28;20635;-82
2023/03/08 08:31:24;;;;;;;0.60;0.60;;;0.60;99.90;;;;;;5041698;28;20227;-80
2023/03/08 08:33:52;;;;;;;0.50;0.40;;;0.60;99.90;;;;;;5039431;28;20234;-82
2023/03/08 08:36:20;;;;;;;0.75;0.60;;;0.50;99.90;;;;;;5037996;28;20683;-82
2023/03/08 08:38:47;;;;;;;3.10;1.00;;;0.50;99.90;;;;;;5039314;28;20223;-79
2023/03/08 08:41:16;;;;;;;11.05;0.98;;;0.50;99.90;;;;;;5039051;28;20662;-81
2023/03/08 08:43:45;;;;;;;0.50;0.40;;;0.50;99.90;;;;;;5037329;28;20199;-81
2023/03/08 08:46:12;;;;;;;0.50;0.40;;;0.50;99.90;;;;;;5038986;28;20201;-81
2023/03/08 08:48:40;;;;;;;0.85;0.85;;;0.50;99.90;;;;;;5039140;28;20630;-82
2023/03/08 08:51:09;;;;;;;2.13;0.60;;;0.50;99.90;;;;;;5038782;28;20215;-81
2023/03/08 08:53:36;;;;;;;0.50;0.40;;;0.50;99.90;;;;;;5036945;28;20203;-81
2023/03/08 08:56:13;;;;;;;0.50;0.50;;;0.50;99.90;;;;;;5038269;28;20286;-80
2023/03/08 08:58:40;;;;;;;1.50;0.57;;;0.50;99.90;;;;;;5039200;28;20218;-82
2023/03/08 09:01:15;;;;;;;0.50;0.50;;;0.50;99.90;;;;;;5037355;28;20210;-79
2023/03/08 09:03:42;;;;;;;0.50;0.40;;;0.50;99.90;;;;;;5038160;28;20217;-80
2023/03/08 09:06:09;;;;;;;0.50;0.50;;;0.50;99.90;;;;;;5051687;28;20682;-82
2023/03/08 09:08:35;;;;;;;0.73;0.73;;;0.50;99.90;;;;;;5042069;28;20192;-80
2023/03/08 09:11:04;;;;;;;1.33;0.75;;;0.50;99.90;;;;;;5036906;28;20240;-80
2023/03/08 09:13:31;;;;;;;0.80;0.80;;;0.60;99.90;;;;;;5044526;28;20200;-80
2023/03/08 09:15:58;;;;;;;0.65;0.63;;;0.60;99.90;;;;;;5064219;28;20209;-80
2023/03/08 09:18:27;;;;;;;0.50;0.50;;;0.60;99.90;;;;;;5041157;28;20195;-81
2023/03/08 09:20:53;;;;;;;3.25;0.77;;;0.60;99.90;;;;;;5036910;28;20246;-80
2023/03/08 09:23:20;;;;;;;3.63;0.93;;;0.60;99.90;;;;;;5038546;28;20639;-80
2023/03/08 09:25:56;;;;;;;0.90;0.60;;;0.60;99.90;;;;;;5054678;28;20230;-80
2023/03/08 09:28:23;;;;;;;0.80;0.73;;;0.60;99.90;;;;;;5039497;28;20275;-81
2023/03/08 09:30:50;;;;;;;0.70;0.70;;;0.60;99.90;;;;;;5054457;28;20637;-81
2023/03/08 09:33:18;;;;;;;0.68;0.68;;;0.70;99.90;;;;;;5057151;28;20187;-79
2023/03/08 09:35:56;;;;;;;0.50;0.40;;;0.60;99.90;;;;;;5058797;28;20222;-80
2023/03/08 09:38:23;;;;;;;0.50;0.50;;;0.60;99.90;;;;;;5055258;28;20226;-80
2023/03/08 09:40:58;;;;;;;0.50;0.40;;;0.70;99.90;;;;;;5057056;28;20731;-81
2023/03/08 09:43:37;;;;;;;0.50;0.40;;;0.80;99.90;;;;;;5052232;28;20255;-81
2023/03/08 09:46:04;;;;;;;0.95;0.75;;;0.80;99.90;;;;;;5035205;28;20567;-80
2023/03/08 09:48:33;;;;;;;0.50;0.50;;;0.70;99.90;;;;;;5034703;28;20724;-81
2023/03/08 09:51:11;;;;;;;0.50;0.45;;;0.70;99.90;;;;;;5037166;28;20233;-80
2023/03/08 09:53:42;;;;;;;0.50;0.40;;;0.70;99.90;;;;;;5046750;28;20198;-79
2023/03/08 09:56:18;;;;;;;0.50;0.40;;;0.80;99.90;;;;;;5054844;28;20190;-80
2023/03/08 09:58:50;;;;;;;3.55;0.93;;;0.90;99.90;;;;;;5054532;28;20198;-81
2023/03/08 10:01:32;;;;;;;0.60;0.60;;;0.90;99.90;;;;;;5057057;28;20634;-81
2023/03/08 10:04:27;;;;;;;0.50;0.40;;;1.00;99.90;;;;;;5051448;28;20806;-80
2023/03/08 10:07:18;;;;;;;0.50;0.40;;;1.00;99.90;;;;;;5033945;28;20258;-79
2023/03/08 10:09:52;;;;;;;0.50;0.40;;;1.00;99.90;;;;;;5035423;28;20647;-79
2023/03/08 10:12:28;;;;;;;0.50;0.40;;;1.10;99.90;;;;;;5036664;28;20211;-81
2023/03/08 10:14:58;;;;;;;0.50;0.40;;;1.10;99.90;;;;;;5040683;28;20199;-78
2023/03/08 10:17:34;;;;;;;0.50;0.40;;;1.00;99.90;;;;;;5046507;28;20207;-79
2023/03/08 10:20:07;;;;;;;0.50;0.40;;;1.10;99.90;;;;;;5049161;28;20290;-78
2023/03/08 10:22:41;;;;;;;0.50;0.40;;;1.10;99.90;;;;;;5050399;28;20214;-78
2023/03/08 10:25:21;;;;;;;0.50;0.40;;;1.00;99.90;;;;;;5047775;28;20191;-81
2023/03/08 10:27:51;;;;;;;0.82;0.70;;;1.10;99.90;;;;;;5057738;28;20214;-81
2023/03/08 10:30:23;;;;;;;0.73;0.70;;;1.10;99.90;;;;;;5049828;28;20686;-79
2023/03/08 10:32:51;;;;;;;0.47;0.40;;;1.10;99.90;;;;;;5043075;28;20745;-80
2023/03/08 10:35:30;;;;;;;0.50;0.40;;;1.20;99.90;;;;;;5043901;28;20278;-82
2023/03/08 10:37:58;;;;;;;2.78;2.25;;;1.30;99.90;;;;;;5066134;28;20270;-82
2023/03/08 10:40:25;;;;;;;1.50;0.70;;;1.30;99.90;;;;;;5052949;28;20317;-81
2023/03/08 10:42:56;;;;;;;0.50;0.40;;;1.40;99.90;;;;;;5040428;28;20287;-81
2023/03/08 10:45:24;;;;;;;0.98;0.90;;;1.40;99.90;;;;;;5044908;28;20190;-80
2023/03/08 10:47:56;;;;;;;0.50;0.40;;;1.40;99.90;;;;;;5053490;28;20228;-81
2023/03/08 10:50:25;;;;;;;0.50;0.50;;;1.40;99.90;;;;;;5060914;28;20218;-80
2023/03/08 10:52:52;;;;;;;1.77;1.67;;;1.50;99.90;;;;;;5054935;28;20210;-81
2023/03/08 10:55:22;;;;;;;0.50;0.40;;;1.60;99.90;;;;;;5045346;28;20238;-80
2023/03/08 10:57:53;;;;;;;0.50;0.40;;;1.60;99.90;;;;;;5061556;28;20190;-82
2023/03/08 11:00:33;;;;;;;0.50;0.40;;;1.70;99.90;;;;;;5050474;28;20218;-80
2023/03/08 11:03:14;;;;;;;0.50;0.40;;;1.60;99.90;;;;;;5055108;28;20199;-81
2023/03/08 11:05:51;;;;;;;1.13;0.90;;;1.60;99.90;;;;;;5058070;28;20205;-80
2023/03/08 11:08:20;;;;;;;0.50;0.40;;;1.50;99.90;;;;;;5056476;28;20254;-81
2023/03/08 11:10:59;;;;;;;1.60;1.50;;;1.50;99.90;;;;;;5053616;28;20278;-81
2023/03/08 11:13:30;;;;;;;1.48;1.40;;;1.50;99.90;;;;;;5057464;28;20761;-80
2023/03/08 11:16:05;;;;;;;0.50;0.40;;;1.60;99.90;;;;;;5056403;28;20230;-79
2023/03/08 11:18:50;;;;;;;0.70;0.60;;;1.50;99.90;;;;;;5054340;28;20198;-81
2023/03/08 11:21:26;;;;;;;0.95;0.95;;;1.40;99.90;;;;;;5057787;28;20200;-82
2023/03/08 11:24:00;;;;;;;1.23;1.23;;;1.40;99.90;;;;;;5047560;28;20195;-81
2023/03/08 11:26:37;;;;;;;0.50;0.40;;;1.40;99.90;;;;;;5056988;28;20225;-81
2023/03/08 11:29:20;;;;;;;1.13;1.02;;;1.30;99.90;;;;;;5049556;28;20634;-82
2023/03/08 11:31:53;;;;;;;0.50;0.40;;;1.30;99.90;;;;;;5065585;28;20655;-80
2023/03/08 11:34:42;;;;;;;0.50;0.40;;;1.30;99.90;;;;;;5055477;28;20198;-82
2023/03/08 11:37:15;;;;;;;0.82;0.60;;;1.30;99.90;;;;;;5040425;28;20282;-81
2023/03/08 11:39:46;;;;;;;0.70;0.70;;;1.30;99.90;;;;;;5054799;28;20219;-79
2023/03/08 11:42:22;;;;;;;0.57;0.57;;;1.30;99.90;;;;;;5052447;28;20222;-81
2023/03/08 11:45:05;;;;;;;1.08;0.98;;;1.40;99.90;;;;;;5057786;28;20218;-83
2023/03/08 11:47:55;;;;;;;0.50;0.40;;;1.40;99.90;;;;;;5058598;28;20187;-80
2023/03/08 11:50:24;;;;;;;0.50;0.40;;;1.30;99.90;;;;;;5051656;28;20283;-80
2023/03/08 11:53:03;;;;;;;0.60;0.60;;;1.40;99.90;;;;;;5056565;28;20222;-80
2023/03/08 11:56:01;;;;;;;2.58;0.90;;;1.40;99.90;;;;;;5065643;28;20278;-80
2023/03/08 11:58:34;;;;;;;0.60;0.60;;;1.50;99.90;;;;;;5037745;28;20222;-80
2023/03/08 12:01:03;;;;;;;0.50;0.40;;;1.50;99.90;;;;;;5056739;28;20274;-80
2023/03/08 12:03:33;;;;;;;0.50;0.40;;;1.50;99.90;;;;;;5051005;28;20266;-81
2023/03/08 12:06:05;;;;;;;0.85;0.85;;;1.50;99.90;;;;;;5056807;28;20222;-79
2023/03/08 12:08:38;;;;;;;0.50;0.40;;;1.60;99.90;;;;;;5049796;28;20191;-80
2023/03/08 12:11:10;;;;;;;0.50;0.47;;;1.60;99.90;;;;;;5049340;28;20215;-80
2023/03/08 12:13:41;;;;;;;0.50;0.40;;;1.60;99.90;;;;;;5040304;28;20655;-79
2023/03/08 12:16:15;;;;;;;0.50;0.40;;;1.60;99.90;;;;;;5049888;28;20277;-80
2023/03/08 12:18:48;;;;;;;0.50;0.40;;;1.50;99.90;;;;;;5059942;28;20607;-79
2023/03/08 12:21:26;;;;;;;0.50;0.40;;;1.60;99.90;;;;;;5061295;28;20210;-80
2023/03/08 12:24:03;;;;;;;0.50;0.40;;;1.60;99.90;;;;;;5058645;28;20205;-79
2023/03/08 12:26:38;;;;;;;0.50;0.40;;;1.60;99.90;;;;;;5059760;28;20281;-79
2023/03/08 12:29:16;;;;;;;0.50;0.40;;;1.60;99.90;;;;;;5060116;28;20293;-80
2023/03/08 12:31:45;;;;;;;0.60;0.60;;;1.50;99.90;;;;;;5049878;28;20215;-81
2023/03/08 12:34:14;;;;;;;0.50;0.50;;;1.60;99.90;;;;;;5031087;28;20198;-81
2023/03/08 12:36:43;;;;;;;0.65;0.65;;;1.60;99.90;;;;;;5039823;28;20717;-80
2023/03/08 12:39:26;;;;;;;0.50;0.50;;;1.50;99.90;;;;;;5037935;28;20191;-82
2023/03/08 12:42:01;;;;;;;0.50;0.40;;;1.60;99.90;;;;;;5039193;28;20188;-80
2023/03/08 12:44:30;;;;;;;0.50;0.40;;;1.50;99.90;;;;;;5040249;28;20278;-80
2023/03/08 12:47:00;;;;;;;0.50;0.40;;;1.50;99.90;;;;;;5057058;28;20195;-80
2023/03/08 12:49:30;;;;;;;0.60;0.60;;;1.60;99.90;;;;;;5036267;28;20303;-81
2023/03/08 12:52:00;;;;;;;0.50;0.40;;;1.70;99.90;;;;;;5036458;28;20222;-81
2023/03/08 12:54:31;;;;;;;0.50;0.40;;;1.70;99.90;;;;;;5043673;28;20201;-81
2023/03/08 12:56:58;;;;;;;0.50;0.40;;;1.70;99.90;;;;;;5033966;28;20245;-80
2023/03/08 12:59:32;;;;;;;0.50;0.40;;;1.80;99.90;;;;;;5032991;28;20310;-80
2023/03/08 13:02:02;;;;;;;1.67;1.58;;;1.80;99.90;;;;;;5034070;28;20188;-80
2023/03/08 13:04:30;;;;;;;0.50;0.40;;;1.80;99.90;;;;;;5035172;28;20290;-82
2023/03/08 13:07:14;;;;;;;0.50;0.40;;;1.70;99.90;;;;;;5037097;28;20206;-82
2023/03/08 13:09:50;;;;;;;0.50;0.50;;;1.70;99.90;;;;;;5034751;28;20219;-82